sensor_id;sensor_type;location;lat;lon;timestamp;P1;durP1;ratioP1;P2;durP2;ratioP2
10939;SDS011;5522;42.696;23.494;2023-04-10T00:01:55;1.52;;;1.52;;
10939;SDS011;5522;42.696;23.494;2023-04-10T00:04:23;2.80;;;1.90;;
10939;SDS011;5522;42.696;23.494;2023-04-10T00:06:50;1.63;;;1.52;;
10939;SDS011;5522;42.696;23.494;2023-04-10T00:09:16;1.48;;;1.38;;
10939;SDS011;5522;42.696;23.494;2023-04-10T00:11:43;1.42;;;1.35;;
10939;SDS011;5522;42.696;23.494;2023-04-10T00:14:10;1.70;;;1.60;;
10939;SDS011;5522;42.696;23.494;2023-04-10T00:16:37;2.45;;;2.35;;
10939;SDS011;5522;42.696;23.494;2023-04-10T00:19:04;2.20;;;2.10;;
10939;SDS011;5522;42.696;23.494;2023-04-10T00:21:33;2.58;;;2.47;;
10939;SDS011;5522;42.696;23.494;2023-04-10T00:24:00;2.30;;;2.20;;
10939;SDS011;5522;42.696;23.494;2023-04-10T00:26:27;3.65;;;3.45;;
10939;SDS011;5522;42.696;23.494;2023-04-10T00:28:53;2.85;;;2.72;;
10939;SDS011;5522;42.696;23.494;2023-04-10T00:31:20;2.88;;;2.78;;
10939;SDS011;5522;42.696;23.494;2023-04-10T00:33:47;2.92;;;2.72;;
10939;SDS011;5522;42.696;23.494;2023-04-10T00:36:14;2.35;;;2.25;;
10939;SDS011;5522;42.696;23.494;2023-04-10T00:38:42;3.35;;;3.05;;
10939;SDS011;5522;42.696;23.494;2023-04-10T00:41:09;3.63;;;3.33;;
10939;SDS011;5522;42.696;23.494;2023-04-10T00:43:36;3.20;;;2.97;;
10939;SDS011;5522;42.696;23.494;2023-04-10T00:46:03;2.25;;;2.15;;
10939;SDS011;5522;42.696;23.494;2023-04-10T00:48:31;2.65;;;2.45;;
10939;SDS011;5522;42.696;23.494;2023-04-10T00:50:58;2.95;;;2.75;;
10939;SDS011;5522;42.696;23.494;2023-04-10T00:53:25;2.90;;;2.70;;
10939;SDS011;5522;42.696;23.494;2023-04-10T00:55:55;2.85;;;2.65;;
10939;SDS011;5522;42.696;23.494;2023-04-10T00:58:22;2.88;;;2.72;;
10939;SDS011;5522;42.696;23.494;2023-04-10T01:06:02;3.00;;;2.80;;
10939;SDS011;5522;42.696;23.494;2023-04-10T01:08:43;3.03;;;2.83;;
10939;SDS011;5522;42.696;23.494;2023-04-10T01:11:22;2.72;;;2.53;;
10939;SDS011;5522;42.696;23.494;2023-04-10T01:13:58;3.58;;;3.38;;
10939;SDS011;5522;42.696;23.494;2023-04-10T01:16:33;2.90;;;2.80;;
10939;SDS011;5522;42.696;23.494;2023-04-10T01:19:08;3.72;;;3.42;;
10939;SDS011;5522;42.696;23.494;2023-04-10T01:21:44;2.88;;;2.67;;
10939;SDS011;5522;42.696;23.494;2023-04-10T01:24:15;3.90;;;3.60;;
10939;SDS011;5522;42.696;23.494;2023-04-10T01:27:03;3.92;;;3.53;;
10939;SDS011;5522;42.696;23.494;2023-04-10T01:29:44;4.05;;;3.72;;
10939;SDS011;5522;42.696;23.494;2023-04-10T01:32:14;4.40;;;4.05;;
10939;SDS011;5522;42.696;23.494;2023-04-10T01:34:45;3.70;;;3.50;;
10939;SDS011;5522;42.696;23.494;2023-04-10T01:37:17;3.72;;;3.47;;
10939;SDS011;5522;42.696;23.494;2023-04-10T01:39:49;3.63;;;3.42;;
10939;SDS011;5522;42.696;23.494;2023-04-10T01:42:19;5.60;;;5.05;;
10939;SDS011;5522;42.696;23.494;2023-04-10T01:44:50;4.38;;;3.97;;
10939;SDS011;5522;42.696;23.494;2023-04-10T01:47:18;3.88;;;3.60;;
10939;SDS011;5522;42.696;23.494;2023-04-10T01:49:47;4.03;;;3.72;;
10939;SDS011;5522;42.696;23.494;2023-04-10T01:52:15;3.85;;;3.55;;
10939;SDS011;5522;42.696;23.494;2023-04-10T01:54:44;3.88;;;3.58;;
10939;SDS011;5522;42.696;23.494;2023-04-10T01:57:12;4.43;;;4.13;;
10939;SDS011;5522;42.696;23.494;2023-04-10T01:59:40;4.07;;;3.78;;
10939;SDS011;5522;42.696;23.494;2023-04-10T02:02:09;5.07;;;4.20;;
10939;SDS011;5522;42.696;23.494;2023-04-10T02:04:36;5.43;;;4.18;;
10939;SDS011;5522;42.696;23.494;2023-04-10T02:07:04;4.70;;;4.28;;
10939;SDS011;5522;42.696;23.494;2023-04-10T02:09:39;5.43;;;4.78;;
10939;SDS011;5522;42.696;23.494;2023-04-10T02:12:12;5.82;;;5.22;;
10939;SDS011;5522;42.696;23.494;2023-04-10T02:14:44;5.20;;;4.70;;
10939;SDS011;5522;42.696;23.494;2023-04-10T02:17:15;6.13;;;4.93;;
10939;SDS011;5522;42.696;23.494;2023-04-10T02:19:46;5.97;;;5.15;;
10939;SDS011;5522;42.696;23.494;2023-04-10T02:22:16;5.97;;;5.38;;
10939;SDS011;5522;42.696;23.494;2023-04-10T02:24:43;7.55;;;5.18;;
10939;SDS011;5522;42.696;23.494;2023-04-10T02:27:10;5.15;;;4.65;;
10939;SDS011;5522;42.696;23.494;2023-04-10T02:29:37;4.18;;;3.88;;
10939;SDS011;5522;42.696;23.494;2023-04-10T02:32:05;5.57;;;5.18;;
10939;SDS011;5522;42.696;23.494;2023-04-10T02:34:33;5.05;;;4.72;;
10939;SDS011;5522;42.696;23.494;2023-04-10T02:37:00;6.72;;;4.90;;
10939;SDS011;5522;42.696;23.494;2023-04-10T02:39:27;4.88;;;4.53;;
10939;SDS011;5522;42.696;23.494;2023-04-10T02:41:53;5.55;;;5.07;;
10939;SDS011;5522;42.696;23.494;2023-04-10T02:44:21;5.55;;;4.72;;
10939;SDS011;5522;42.696;23.494;2023-04-10T02:46:47;5.22;;;4.82;;
10939;SDS011;5522;42.696;23.494;2023-04-10T02:49:14;4.45;;;4.15;;
10939;SDS011;5522;42.696;23.494;2023-04-10T02:51:42;5.32;;;4.28;;
10939;SDS011;5522;42.696;23.494;2023-04-10T02:54:09;5.30;;;4.82;;
10939;SDS011;5522;42.696;23.494;2023-04-10T02:56:36;5.60;;;5.10;;
10939;SDS011;5522;42.696;23.494;2023-04-10T02:59:03;4.85;;;4.55;;
10939;SDS011;5522;42.696;23.494;2023-04-10T03:01:30;6.78;;;5.43;;
10939;SDS011;5522;42.696;23.494;2023-04-10T03:03:57;6.28;;;5.60;;
10939;SDS011;5522;42.696;23.494;2023-04-10T03:06:24;5.43;;;4.93;;
10939;SDS011;5522;42.696;23.494;2023-04-10T03:08:53;6.03;;;5.53;;
10939;SDS011;5522;42.696;23.494;2023-04-10T03:11:20;6.57;;;5.30;;
10939;SDS011;5522;42.696;23.494;2023-04-10T03:13:47;5.93;;;5.38;;
10939;SDS011;5522;42.696;23.494;2023-04-10T03:16:15;6.68;;;6.03;;
10939;SDS011;5522;42.696;23.494;2023-04-10T03:18:42;6.90;;;6.03;;
10939;SDS011;5522;42.696;23.494;2023-04-10T03:21:09;6.57;;;5.70;;
10939;SDS011;5522;42.696;23.494;2023-04-10T03:23:36;7.20;;;5.97;;
10939;SDS011;5522;42.696;23.494;2023-04-10T03:26:05;9.60;;;7.07;;
10939;SDS011;5522;42.696;23.494;2023-04-10T03:28:32;9.35;;;7.10;;
10939;SDS011;5522;42.696;23.494;2023-04-10T03:31:00;8.20;;;7.03;;
10939;SDS011;5522;42.696;23.494;2023-04-10T03:33:28;9.55;;;8.38;;
10939;SDS011;5522;42.696;23.494;2023-04-10T03:35:55;11.40;;;9.65;;
10939;SDS011;5522;42.696;23.494;2023-04-10T03:38:22;10.32;;;9.02;;
10939;SDS011;5522;42.696;23.494;2023-04-10T03:40:49;11.55;;;9.20;;
10939;SDS011;5522;42.696;23.494;2023-04-10T03:43:19;12.02;;;9.88;;
10939;SDS011;5522;42.696;23.494;2023-04-10T03:45:46;14.52;;;10.70;;
10939;SDS011;5522;42.696;23.494;2023-04-10T03:48:12;16.02;;;11.88;;
10939;SDS011;5522;42.696;23.494;2023-04-10T03:50:39;20.08;;;14.48;;
10939;SDS011;5522;42.696;23.494;2023-04-10T03:53:06;12.60;;;10.32;;
10939;SDS011;5522;42.696;23.494;2023-04-10T03:55:33;13.40;;;8.98;;
10939;SDS011;5522;42.696;23.494;2023-04-10T03:58:00;15.20;;;10.00;;
10939;SDS011;5522;42.696;23.494;2023-04-10T04:00:29;13.88;;;10.35;;
10939;SDS011;5522;42.696;23.494;2023-04-10T04:02:56;18.27;;;12.98;;
10939;SDS011;5522;42.696;23.494;2023-04-10T04:05:24;13.50;;;10.98;;
10939;SDS011;5522;42.696;23.494;2023-04-10T04:07:51;10.32;;;8.48;;
10939;SDS011;5522;42.696;23.494;2023-04-10T04:10:18;12.85;;;9.32;;
10939;SDS011;5522;42.696;23.494;2023-04-10T04:12:45;12.57;;;10.20;;
10939;SDS011;5522;42.696;23.494;2023-04-10T04:15:12;11.88;;;9.23;;
10939;SDS011;5522;42.696;23.494;2023-04-10T04:17:41;12.43;;;9.50;;
10939;SDS011;5522;42.696;23.494;2023-04-10T04:20:08;11.25;;;10.00;;
10939;SDS011;5522;42.696;23.494;2023-04-10T04:22:35;18.50;;;12.43;;
10939;SDS011;5522;42.696;23.494;2023-04-10T04:25:02;24.58;;;13.30;;
10939;SDS011;5522;42.696;23.494;2023-04-10T04:27:32;11.48;;;9.07;;
10939;SDS011;5522;42.696;23.494;2023-04-10T04:29:59;9.35;;;8.07;;
10939;SDS011;5522;42.696;23.494;2023-04-10T04:32:26;18.48;;;10.88;;
10939;SDS011;5522;42.696;23.494;2023-04-10T04:34:54;12.93;;;10.80;;
10939;SDS011;5522;42.696;23.494;2023-04-10T04:37:21;6.45;;;5.82;;
10939;SDS011;5522;42.696;23.494;2023-04-10T04:39:48;7.15;;;5.20;;
10939;SDS011;5522;42.696;23.494;2023-04-10T04:42:15;4.97;;;4.47;;
10939;SDS011;5522;42.696;23.494;2023-04-10T04:44:42;4.15;;;3.85;;
10939;SDS011;5522;42.696;23.494;2023-04-10T04:47:09;5.63;;;3.45;;
10939;SDS011;5522;42.696;23.494;2023-04-10T04:49:35;5.22;;;3.22;;
10939;SDS011;5522;42.696;23.494;2023-04-10T04:52:04;3.03;;;2.83;;
10939;SDS011;5522;42.696;23.494;2023-04-10T04:54:30;4.07;;;3.72;;
10939;SDS011;5522;42.696;23.494;2023-04-10T04:56:57;3.83;;;3.35;;
10939;SDS011;5522;42.696;23.494;2023-04-10T04:59:25;4.00;;;3.60;;
10939;SDS011;5522;42.696;23.494;2023-04-10T05:01:52;2.70;;;2.60;;
10939;SDS011;5522;42.696;23.494;2023-04-10T05:04:19;3.17;;;2.92;;
10939;SDS011;5522;42.696;23.494;2023-04-10T05:06:46;5.28;;;3.13;;
10939;SDS011;5522;42.696;23.494;2023-04-10T05:09:14;2.60;;;2.42;;
10939;SDS011;5522;42.696;23.494;2023-04-10T05:11:41;2.45;;;2.35;;
10939;SDS011;5522;42.696;23.494;2023-04-10T05:14:08;2.28;;;2.17;;
10939;SDS011;5522;42.696;23.494;2023-04-10T05:16:34;3.75;;;3.45;;
10939;SDS011;5522;42.696;23.494;2023-04-10T05:19:01;3.00;;;2.80;;
10939;SDS011;5522;42.696;23.494;2023-04-10T05:21:28;3.60;;;3.40;;
10939;SDS011;5522;42.696;23.494;2023-04-10T05:23:55;3.22;;;2.92;;
10939;SDS011;5522;42.696;23.494;2023-04-10T05:26:23;2.97;;;2.75;;
10939;SDS011;5522;42.696;23.494;2023-04-10T05:28:50;2.63;;;2.53;;
10939;SDS011;5522;42.696;23.494;2023-04-10T05:31:17;3.10;;;2.47;;
10939;SDS011;5522;42.696;23.494;2023-04-10T05:33:43;3.60;;;2.90;;
10939;SDS011;5522;42.696;23.494;2023-04-10T05:36:11;3.08;;;2.85;;
10939;SDS011;5522;42.696;23.494;2023-04-10T05:38:38;3.08;;;2.97;;
10939;SDS011;5522;42.696;23.494;2023-04-10T05:41:05;3.70;;;3.10;;
10939;SDS011;5522;42.696;23.494;2023-04-10T05:43:33;4.15;;;3.70;;
10939;SDS011;5522;42.696;23.494;2023-04-10T05:46:00;3.95;;;3.67;;
10939;SDS011;5522;42.696;23.494;2023-04-10T05:48:27;3.47;;;3.28;;
10939;SDS011;5522;42.696;23.494;2023-04-10T05:50:54;21.80;;;11.98;;
10939;SDS011;5522;42.696;23.494;2023-04-10T05:53:21;11.15;;;8.57;;
10939;SDS011;5522;42.696;23.494;2023-04-10T05:55:55;4.97;;;4.57;;
10939;SDS011;5522;42.696;23.494;2023-04-10T05:58:23;5.97;;;5.07;;
10939;SDS011;5522;42.696;23.494;2023-04-10T06:00:51;6.40;;;5.70;;
10939;SDS011;5522;42.696;23.494;2023-04-10T06:03:18;20.48;;;13.20;;
10939;SDS011;5522;42.696;23.494;2023-04-10T06:05:45;18.83;;;13.73;;
10939;SDS011;5522;42.696;23.494;2023-04-10T06:08:12;10.18;;;5.60;;
10939;SDS011;5522;42.696;23.494;2023-04-10T06:10:39;5.03;;;4.60;;
10939;SDS011;5522;42.696;23.494;2023-04-10T06:13:06;4.88;;;4.47;;
10939;SDS011;5522;42.696;23.494;2023-04-10T06:15:33;5.60;;;5.10;;
10939;SDS011;5522;42.696;23.494;2023-04-10T06:18:01;5.22;;;4.78;;
10939;SDS011;5522;42.696;23.494;2023-04-10T06:20:28;5.60;;;4.90;;
10939;SDS011;5522;42.696;23.494;2023-04-10T06:22:55;10.45;;;5.93;;
10939;SDS011;5522;42.696;23.494;2023-04-10T06:25:21;13.25;;;11.50;;
10939;SDS011;5522;42.696;23.494;2023-04-10T06:27:48;10.68;;;7.60;;
10939;SDS011;5522;42.696;23.494;2023-04-10T06:30:16;7.88;;;7.05;;
10939;SDS011;5522;42.696;23.494;2023-04-10T06:32:43;8.80;;;7.30;;
10939;SDS011;5522;42.696;23.494;2023-04-10T06:35:11;8.73;;;6.88;;
10939;SDS011;5522;42.696;23.494;2023-04-10T06:37:38;7.75;;;6.90;;
10939;SDS011;5522;42.696;23.494;2023-04-10T06:40:05;10.27;;;7.20;;
10939;SDS011;5522;42.696;23.494;2023-04-10T06:42:34;8.85;;;6.00;;
10939;SDS011;5522;42.696;23.494;2023-04-10T06:45:02;11.07;;;6.40;;
10939;SDS011;5522;42.696;23.494;2023-04-10T06:47:29;6.75;;;5.82;;
10939;SDS011;5522;42.696;23.494;2023-04-10T06:49:56;7.70;;;6.63;;
10939;SDS011;5522;42.696;23.494;2023-04-10T06:52:25;8.32;;;5.95;;
10939;SDS011;5522;42.696;23.494;2023-04-10T06:54:52;5.63;;;5.07;;
10939;SDS011;5522;42.696;23.494;2023-04-10T06:57:18;6.22;;;4.60;;
10939;SDS011;5522;42.696;23.494;2023-04-10T06:59:45;5.88;;;5.13;;
10939;SDS011;5522;42.696;23.494;2023-04-10T07:02:12;7.95;;;6.78;;
10939;SDS011;5522;42.696;23.494;2023-04-10T07:04:39;9.38;;;7.90;;
10939;SDS011;5522;42.696;23.494;2023-04-10T07:07:07;5.43;;;4.70;;
10939;SDS011;5522;42.696;23.494;2023-04-10T07:09:38;6.10;;;4.95;;
10939;SDS011;5522;42.696;23.494;2023-04-10T07:12:05;5.47;;;5.00;;
10939;SDS011;5522;42.696;23.494;2023-04-10T07:14:32;5.45;;;4.95;;
10939;SDS011;5522;42.696;23.494;2023-04-10T07:16:59;4.72;;;4.38;;
10939;SDS011;5522;42.696;23.494;2023-04-10T07:19:26;5.65;;;4.50;;
10939;SDS011;5522;42.696;23.494;2023-04-10T07:21:53;7.07;;;5.10;;
10939;SDS011;5522;42.696;23.494;2023-04-10T07:24:21;5.05;;;4.65;;
10939;SDS011;5522;42.696;23.494;2023-04-10T07:26:49;5.10;;;4.68;;
10939;SDS011;5522;42.696;23.494;2023-04-10T07:29:16;5.32;;;4.70;;
10939;SDS011;5522;42.696;23.494;2023-04-10T07:31:42;5.60;;;5.15;;
10939;SDS011;5522;42.696;23.494;2023-04-10T07:34:09;5.28;;;4.78;;
10939;SDS011;5522;42.696;23.494;2023-04-10T07:36:37;5.53;;;5.05;;
10939;SDS011;5522;42.696;23.494;2023-04-10T07:39:03;5.90;;;5.47;;
10939;SDS011;5522;42.696;23.494;2023-04-10T07:41:30;5.00;;;4.50;;
10939;SDS011;5522;42.696;23.494;2023-04-10T07:43:58;13.30;;;12.00;;
10939;SDS011;5522;42.696;23.494;2023-04-10T07:46:25;6.28;;;5.78;;
10939;SDS011;5522;42.696;23.494;2023-04-10T07:48:52;7.95;;;5.43;;
10939;SDS011;5522;42.696;23.494;2023-04-10T07:51:20;7.07;;;5.25;;
10939;SDS011;5522;42.696;23.494;2023-04-10T07:53:47;7.63;;;6.45;;
10939;SDS011;5522;42.696;23.494;2023-04-10T07:56:14;5.65;;;5.20;;
10939;SDS011;5522;42.696;23.494;2023-04-10T07:58:42;10.05;;;5.60;;
10939;SDS011;5522;42.696;23.494;2023-04-10T08:01:10;6.18;;;5.68;;
10939;SDS011;5522;42.696;23.494;2023-04-10T08:03:38;5.70;;;5.20;;
10939;SDS011;5522;42.696;23.494;2023-04-10T08:06:06;5.72;;;5.32;;
10939;SDS011;5522;42.696;23.494;2023-04-10T08:08:34;6.13;;;5.68;;
10939;SDS011;5522;42.696;23.494;2023-04-10T08:11:02;7.05;;;6.35;;
10939;SDS011;5522;42.696;23.494;2023-04-10T08:13:32;4.45;;;4.15;;
10939;SDS011;5522;42.696;23.494;2023-04-10T08:15:59;4.47;;;4.03;;
10939;SDS011;5522;42.696;23.494;2023-04-10T08:18:27;4.45;;;4.15;;
10939;SDS011;5522;42.696;23.494;2023-04-10T08:20:54;4.13;;;3.83;;
10939;SDS011;5522;42.696;23.494;2023-04-10T08:23:21;5.07;;;4.68;;
10939;SDS011;5522;42.696;23.494;2023-04-10T08:25:48;4.03;;;3.75;;
10939;SDS011;5522;42.696;23.494;2023-04-10T08:28:15;5.60;;;5.13;;
10939;SDS011;5522;42.696;23.494;2023-04-10T08:30:43;4.30;;;3.80;;
10939;SDS011;5522;42.696;23.494;2023-04-10T08:33:10;3.42;;;3.30;;
10939;SDS011;5522;42.696;23.494;2023-04-10T08:35:38;4.75;;;4.45;;
10939;SDS011;5522;42.696;23.494;2023-04-10T08:38:05;6.38;;;4.28;;
10939;SDS011;5522;42.696;23.494;2023-04-10T08:40:35;4.05;;;3.72;;
10939;SDS011;5522;42.696;23.494;2023-04-10T08:43:02;4.18;;;3.97;;
10939;SDS011;5522;42.696;23.494;2023-04-10T08:45:29;3.65;;;3.45;;
10939;SDS011;5522;42.696;23.494;2023-04-10T08:47:56;4.60;;;3.97;;
10939;SDS011;5522;42.696;23.494;2023-04-10T08:50:26;4.43;;;3.88;;
10939;SDS011;5522;42.696;23.494;2023-04-10T08:52:58;3.65;;;3.45;;
10939;SDS011;5522;42.696;23.494;2023-04-10T08:55:30;4.63;;;4.30;;
10939;SDS011;5522;42.696;23.494;2023-04-10T08:57:57;3.85;;;3.65;;
10939;SDS011;5522;42.696;23.494;2023-04-10T09:00:24;3.03;;;2.83;;
10939;SDS011;5522;42.696;23.494;2023-04-10T09:02:53;4.57;;;3.95;;
10939;SDS011;5522;42.696;23.494;2023-04-10T09:05:22;6.10;;;3.83;;
10939;SDS011;5522;42.696;23.494;2023-04-10T09:07:50;4.40;;;4.10;;
10939;SDS011;5522;42.696;23.494;2023-04-10T09:10:18;4.25;;;4.03;;
10939;SDS011;5522;42.696;23.494;2023-04-10T09:12:45;3.63;;;3.42;;
10939;SDS011;5522;42.696;23.494;2023-04-10T09:15:14;3.10;;;2.92;;
10939;SDS011;5522;42.696;23.494;2023-04-10T09:17:54;3.95;;;3.60;;
10939;SDS011;5522;42.696;23.494;2023-04-10T09:20:25;6.13;;;4.35;;
10939;SDS011;5522;42.696;23.494;2023-04-10T09:22:54;5.35;;;4.85;;
10939;SDS011;5522;42.696;23.494;2023-04-10T09:25:29;4.53;;;4.13;;
10939;SDS011;5522;42.696;23.494;2023-04-10T09:28:01;3.55;;;3.35;;
10939;SDS011;5522;42.696;23.494;2023-04-10T09:30:33;5.55;;;5.18;;
10939;SDS011;5522;42.696;23.494;2023-04-10T09:33:01;4.95;;;3.38;;
10939;SDS011;5522;42.696;23.494;2023-04-10T09:35:35;5.15;;;4.65;;
10939;SDS011;5522;42.696;23.494;2023-04-10T09:38:13;4.88;;;4.50;;
10939;SDS011;5522;42.696;23.494;2023-04-10T09:40:42;8.43;;;7.28;;
10939;SDS011;5522;42.696;23.494;2023-04-10T09:43:17;8.93;;;6.93;;
10939;SDS011;5522;42.696;23.494;2023-04-10T09:45:48;5.95;;;5.43;;
10939;SDS011;5522;42.696;23.494;2023-04-10T09:48:16;5.57;;;4.95;;
10939;SDS011;5522;42.696;23.494;2023-04-10T09:50:44;4.22;;;3.85;;
10939;SDS011;5522;42.696;23.494;2023-04-10T09:53:12;5.63;;;5.13;;
10939;SDS011;5522;42.696;23.494;2023-04-10T09:55:42;9.40;;;8.18;;
10939;SDS011;5522;42.696;23.494;2023-04-10T09:58:09;6.68;;;3.65;;
10939;SDS011;5522;42.696;23.494;2023-04-10T10:00:40;3.15;;;3.00;;
10939;SDS011;5522;42.696;23.494;2023-04-10T10:03:09;4.28;;;3.97;;
10939;SDS011;5522;42.696;23.494;2023-04-10T10:05:37;8.43;;;3.60;;
10939;SDS011;5522;42.696;23.494;2023-04-10T10:08:06;4.60;;;4.30;;
10939;SDS011;5522;42.696;23.494;2023-04-10T10:10:33;7.78;;;6.47;;
10939;SDS011;5522;42.696;23.494;2023-04-10T10:13:06;3.58;;;3.47;;
10939;SDS011;5522;42.696;23.494;2023-04-10T10:15:37;5.45;;;4.93;;
10939;SDS011;5522;42.696;23.494;2023-04-10T10:18:13;4.45;;;3.72;;
10939;SDS011;5522;42.696;23.494;2023-04-10T10:20:46;3.22;;;3.03;;
10939;SDS011;5522;42.696;23.494;2023-04-10T10:23:13;5.00;;;3.65;;
10939;SDS011;5522;42.696;23.494;2023-04-10T10:25:41;3.63;;;3.33;;
10939;SDS011;5522;42.696;23.494;2023-04-10T10:28:11;2.60;;;2.50;;
10939;SDS011;5522;42.696;23.494;2023-04-10T10:30:39;2.45;;;2.35;;
10939;SDS011;5522;42.696;23.494;2023-04-10T10:33:07;4.20;;;3.13;;
10939;SDS011;5522;42.696;23.494;2023-04-10T10:35:36;3.08;;;2.88;;
10939;SDS011;5522;42.696;23.494;2023-04-10T10:38:03;3.80;;;3.60;;
10939;SDS011;5522;42.696;23.494;2023-04-10T10:40:31;2.00;;;1.90;;
10939;SDS011;5522;42.696;23.494;2023-04-10T10:43:06;2.80;;;2.67;;
10939;SDS011;5522;42.696;23.494;2023-04-10T10:45:40;3.47;;;3.22;;
10939;SDS011;5522;42.696;23.494;2023-04-10T10:48:13;2.60;;;2.40;;
10939;SDS011;5522;42.696;23.494;2023-04-10T10:50:50;3.72;;;3.47;;
10939;SDS011;5522;42.696;23.494;2023-04-10T10:53:31;4.13;;;2.60;;
10939;SDS011;5522;42.696;23.494;2023-04-10T10:56:11;2.50;;;2.40;;
10939;SDS011;5522;42.696;23.494;2023-04-10T10:58:58;2.53;;;2.33;;
10939;SDS011;5522;42.696;23.494;2023-04-10T11:01:27;3.08;;;2.92;;
10939;SDS011;5522;42.696;23.494;2023-04-10T11:03:54;2.08;;;2.03;;
10939;SDS011;5522;42.696;23.494;2023-04-10T11:06:21;1.83;;;1.63;;
10939;SDS011;5522;42.696;23.494;2023-04-10T11:12:14;2.83;;;2.72;;
10939;SDS011;5522;42.696;23.494;2023-04-10T11:14:42;2.65;;;2.55;;
10939;SDS011;5522;42.696;23.494;2023-04-10T11:17:12;7.18;;;6.47;;
10939;SDS011;5522;42.696;23.494;2023-04-10T11:19:57;4.20;;;3.90;;
10939;SDS011;5522;42.696;23.494;2023-04-10T11:22:25;2.72;;;2.63;;
10939;SDS011;5522;42.696;23.494;2023-04-10T11:24:57;3.60;;;3.40;;
10939;SDS011;5522;42.696;23.494;2023-04-10T11:27:41;2.60;;;2.50;;
10939;SDS011;5522;42.696;23.494;2023-04-10T11:30:30;3.42;;;3.20;;
10939;SDS011;5522;42.696;23.494;2023-04-10T11:32:59;3.45;;;3.15;;
10939;SDS011;5522;42.696;23.494;2023-04-10T11:35:27;2.65;;;2.47;;
10939;SDS011;5522;42.696;23.494;2023-04-10T11:38:12;3.05;;;2.95;;
10939;SDS011;5522;42.696;23.494;2023-04-10T11:40:56;2.92;;;2.72;;
10939;SDS011;5522;42.696;23.494;2023-04-10T11:43:28;7.72;;;3.78;;
10939;SDS011;5522;42.696;23.494;2023-04-10T11:46:05;3.25;;;3.05;;
10939;SDS011;5522;42.696;23.494;2023-04-10T11:48:34;4.90;;;4.53;;
10939;SDS011;5522;42.696;23.494;2023-04-10T11:51:11;4.82;;;4.28;;
10939;SDS011;5522;42.696;23.494;2023-04-10T11:53:39;5.82;;;4.00;;
10939;SDS011;5522;42.696;23.494;2023-04-10T11:56:13;4.20;;;3.92;;
10939;SDS011;5522;42.696;23.494;2023-04-10T11:58:41;5.20;;;4.88;;
10939;SDS011;5522;42.696;23.494;2023-04-10T12:01:08;3.03;;;2.50;;
10939;SDS011;5522;42.696;23.494;2023-04-10T12:03:40;3.42;;;3.22;;
10939;SDS011;5522;42.696;23.494;2023-04-10T12:06:08;4.25;;;3.97;;
10939;SDS011;5522;42.696;23.494;2023-04-10T12:08:37;6.40;;;5.80;;
10939;SDS011;5522;42.696;23.494;2023-04-10T12:11:05;4.43;;;4.13;;
10939;SDS011;5522;42.696;23.494;2023-04-10T12:13:33;6.07;;;4.10;;
10939;SDS011;5522;42.696;23.494;2023-04-10T12:16:01;4.15;;;3.95;;
10939;SDS011;5522;42.696;23.494;2023-04-10T12:18:29;4.30;;;4.00;;
10939;SDS011;5522;42.696;23.494;2023-04-10T12:20:58;4.97;;;4.63;;
10939;SDS011;5522;42.696;23.494;2023-04-10T12:23:27;3.35;;;3.15;;
10939;SDS011;5522;42.696;23.494;2023-04-10T12:26:05;3.28;;;2.83;;
10939;SDS011;5522;42.696;23.494;2023-04-10T12:28:39;2.38;;;2.05;;
10939;SDS011;5522;42.696;23.494;2023-04-10T12:31:07;3.35;;;1.60;;
10939;SDS011;5522;42.696;23.494;2023-04-10T12:33:35;1.63;;;1.52;;
10939;SDS011;5522;42.696;23.494;2023-04-10T12:36:03;2.30;;;2.20;;
10939;SDS011;5522;42.696;23.494;2023-04-10T12:38:34;1.67;;;1.58;;
10939;SDS011;5522;42.696;23.494;2023-04-10T12:41:01;2.22;;;2.03;;
10939;SDS011;5522;42.696;23.494;2023-04-10T12:43:30;3.25;;;3.05;;
10939;SDS011;5522;42.696;23.494;2023-04-10T12:45:58;4.80;;;4.00;;
10939;SDS011;5522;42.696;23.494;2023-04-10T12:48:25;5.20;;;4.80;;
10939;SDS011;5522;42.696;23.494;2023-04-10T12:50:52;5.20;;;4.70;;
10939;SDS011;5522;42.696;23.494;2023-04-10T12:53:20;3.10;;;2.88;;
10939;SDS011;5522;42.696;23.494;2023-04-10T12:55:57;2.25;;;2.15;;
10939;SDS011;5522;42.696;23.494;2023-04-10T12:58:25;2.22;;;2.20;;
10939;SDS011;5522;42.696;23.494;2023-04-10T13:00:53;2.35;;;1.80;;
10939;SDS011;5522;42.696;23.494;2023-04-10T13:03:21;2.85;;;2.15;;
10939;SDS011;5522;42.696;23.494;2023-04-10T13:05:48;1.48;;;1.48;;
10939;SDS011;5522;42.696;23.494;2023-04-10T13:08:16;2.13;;;2.13;;
10939;SDS011;5522;42.696;23.494;2023-04-10T13:10:44;3.60;;;1.48;;
10939;SDS011;5522;42.696;23.494;2023-04-10T13:13:11;2.58;;;1.65;;
10939;SDS011;5522;42.696;23.494;2023-04-10T13:15:38;2.70;;;2.60;;
10939;SDS011;5522;42.696;23.494;2023-04-10T13:18:06;2.13;;;2.08;;
10939;SDS011;5522;42.696;23.494;2023-04-10T13:20:34;1.67;;;1.67;;
10939;SDS011;5522;42.696;23.494;2023-04-10T13:23:02;1.98;;;1.88;;
10939;SDS011;5522;42.696;23.494;2023-04-10T13:25:32;2.00;;;1.90;;
10939;SDS011;5522;42.696;23.494;2023-04-10T13:28:01;2.42;;;2.33;;
10939;SDS011;5522;42.696;23.494;2023-04-10T13:30:34;3.35;;;3.05;;
10939;SDS011;5522;42.696;23.494;2023-04-10T13:33:01;4.38;;;2.47;;
10939;SDS011;5522;42.696;23.494;2023-04-10T13:35:28;2.55;;;2.38;;
10939;SDS011;5522;42.696;23.494;2023-04-10T13:37:54;2.50;;;2.35;;
10939;SDS011;5522;42.696;23.494;2023-04-10T13:40:21;2.90;;;2.80;;
10939;SDS011;5522;42.696;23.494;2023-04-10T13:42:48;2.97;;;2.88;;
10939;SDS011;5522;42.696;23.494;2023-04-10T13:45:17;3.35;;;3.15;;
10939;SDS011;5522;42.696;23.494;2023-04-10T13:47:43;4.03;;;3.83;;
10939;SDS011;5522;42.696;23.494;2023-04-10T13:50:10;4.15;;;3.92;;
10939;SDS011;5522;42.696;23.494;2023-04-10T13:52:37;4.82;;;4.53;;
10939;SDS011;5522;42.696;23.494;2023-04-10T13:55:04;4.32;;;4.03;;
10939;SDS011;5522;42.696;23.494;2023-04-10T13:57:32;5.68;;;5.28;;
10939;SDS011;5522;42.696;23.494;2023-04-10T13:59:59;3.92;;;3.63;;
10939;SDS011;5522;42.696;23.494;2023-04-10T14:02:27;4.25;;;3.95;;
10939;SDS011;5522;42.696;23.494;2023-04-10T14:04:54;6.15;;;5.55;;
10939;SDS011;5522;42.696;23.494;2023-04-10T14:07:21;4.18;;;1.63;;
10939;SDS011;5522;42.696;23.494;2023-04-10T14:09:48;2.38;;;0.70;;
10939;SDS011;5522;42.696;23.494;2023-04-10T14:12:15;1.67;;;1.58;;
10939;SDS011;5522;42.696;23.494;2023-04-10T14:14:43;2.10;;;2.00;;
10939;SDS011;5522;42.696;23.494;2023-04-10T14:17:10;2.10;;;2.00;;
10939;SDS011;5522;42.696;23.494;2023-04-10T14:19:38;2.33;;;2.13;;
10939;SDS011;5522;42.696;23.494;2023-04-10T14:22:05;6.20;;;5.60;;
10939;SDS011;5522;42.696;23.494;2023-04-10T14:24:32;4.10;;;3.80;;
10939;SDS011;5522;42.696;23.494;2023-04-10T14:26:59;2.40;;;2.30;;
10939;SDS011;5522;42.696;23.494;2023-04-10T14:29:26;3.08;;;2.88;;
10939;SDS011;5522;42.696;23.494;2023-04-10T14:31:53;2.65;;;2.45;;
10939;SDS011;5522;42.696;23.494;2023-04-10T14:34:20;2.25;;;1.90;;
10939;SDS011;5522;42.696;23.494;2023-04-10T14:36:48;2.65;;;2.55;;
10939;SDS011;5522;42.696;23.494;2023-04-10T14:39:19;4.72;;;4.32;;
10939;SDS011;5522;42.696;23.494;2023-04-10T14:41:47;4.03;;;3.38;;
10939;SDS011;5522;42.696;23.494;2023-04-10T14:44:14;5.75;;;3.78;;
10939;SDS011;5522;42.696;23.494;2023-04-10T14:46:41;2.03;;;1.92;;
10939;SDS011;5522;42.696;23.494;2023-04-10T14:49:08;2.95;;;2.63;;
10939;SDS011;5522;42.696;23.494;2023-04-10T14:51:35;3.83;;;3.25;;
10939;SDS011;5522;42.696;23.494;2023-04-10T14:54:04;3.92;;;3.63;;
10939;SDS011;5522;42.696;23.494;2023-04-10T14:56:31;3.42;;;3.20;;
10939;SDS011;5522;42.696;23.494;2023-04-10T14:58:58;3.05;;;2.95;;
10939;SDS011;5522;42.696;23.494;2023-04-10T15:01:25;3.08;;;2.85;;
10939;SDS011;5522;42.696;23.494;2023-04-10T15:03:52;2.70;;;2.60;;